KDLO

Delano Municipal Airport

Delano, California, USA
METAR KDLO 212115Z AUTO 00000KT 10SM CLR 26/03 A2989 RMK AO2 T02600029
Observed Flight Rules
Oct-21 @ 21:15 UTC (35 minutes ago) Visual Flight Rules
Visibility Clouds
10 miles
  • Clear skies
Temperatures Readings
Current 26°C / 79°F
Dewpoint 3°C / 37°F
Humidity 23%
Altimeter 29.89" Hg
Pressure 1012 hPa
Elevation 96
METAR KDLO 212115Z AUTO 00000KT 10SM CLR 26/03 A2989 RMK AO2 T02600029
Observed Flight Rules
Oct-21 @ 21:15 UTC
(35 minutes ago)
VFR
Clouds
  • Clear skies
Temperature Dewpoint
26°C / 79°F 3°C / 37°F
Humidity Altimeter Pressure
23% 29.89" Hg 1012 hPa